createdAt,value
2019-05-03T00:01:58.109Z,100877.45
2019-05-03T00:04:26.851Z,100878.80
2019-05-03T00:06:55.641Z,100874.98
2019-05-03T00:09:24.550Z,100872.67
2019-05-03T00:11:53.319Z,100870.42
2019-05-03T00:14:22.156Z,100871.42
2019-05-03T00:16:52.220Z,100882.41
2019-05-03T00:19:21.937Z,100878.67
2019-05-03T00:21:52.553Z,100872.89
2019-05-03T00:24:22.636Z,100872.89
2019-05-03T00:26:51.713Z,100874.02
2019-05-03T00:29:22.032Z,100876.70
2019-05-03T00:31:51.725Z,100875.45
2019-05-03T00:34:22.247Z,100875.41
2019-05-03T00:36:55.294Z,100879.14
2019-05-03T00:39:37.527Z,100882.89
2019-05-03T00:42:06.385Z,100878.92
2019-05-03T00:44:35.215Z,100878.38
2019-05-03T00:47:03.965Z,100889.22
2019-05-03T00:49:32.843Z,100879.27
2019-05-03T00:52:02.319Z,100881.91
2019-05-03T00:54:31.737Z,100878.58
2019-05-03T00:57:02.527Z,100880.56
2019-05-03T00:59:32.680Z,100876.58
2019-05-03T01:02:02.675Z,100874.13
2019-05-03T01:04:31.822Z,100880.39
2019-05-03T01:07:02.242Z,100882.91
2019-05-03T01:09:31.733Z,100880.21
2019-05-03T01:12:01.954Z,100882.50
2019-05-03T01:14:31.642Z,100881.92
2019-05-03T01:17:02.560Z,100887.95
2019-05-03T01:19:32.825Z,100879.45
2019-05-03T01:22:02.026Z,100884.43
2019-05-03T01:24:32.294Z,100882.09
2019-05-03T01:27:01.949Z,100886.25
2019-05-03T01:29:32.210Z,100880.23
2019-05-03T01:32:02.296Z,100891.98
2019-05-03T01:34:32.625Z,100893.11
2019-05-03T01:37:02.581Z,100893.63
2019-05-03T01:39:31.800Z,100889.30
2019-05-03T01:42:02.494Z,100889.55
2019-05-03T01:44:32.700Z,100895.56
2019-05-03T01:47:03.227Z,100895.72
2019-05-03T01:49:33.544Z,100894.11
2019-05-03T01:52:16.114Z,100893.03
2019-05-03T01:54:44.854Z,100895.31
2019-05-03T01:57:13.651Z,100901.52
2019-05-03T01:59:42.654Z,100903.99
2019-05-03T02:02:13.934Z,100910.05
2019-05-03T02:04:44.328Z,100909.23
2019-05-03T02:07:13.169Z,100908.34
2019-05-03T02:09:41.928Z,100908.13
2019-05-03T02:12:12.632Z,100904.62
2019-05-03T02:14:42.247Z,100911.81
2019-05-03T02:17:12.392Z,100917.88
2019-05-03T02:19:42.198Z,100922.56
2019-05-03T02:22:12.109Z,100918.31
2019-05-03T02:24:42.268Z,100929.84
2019-05-03T02:27:12.716Z,100931.03
2019-05-03T02:29:41.901Z,100930.52
2019-05-03T02:32:13.111Z,100934.58
2019-05-03T02:34:43.892Z,100928.99
2019-05-03T02:37:13.897Z,100929.60
2019-05-03T02:39:42.789Z,100931.25
2019-05-03T02:42:12.072Z,100933.64
2019-05-03T02:44:41.257Z,100934.70
2019-05-03T02:47:15.924Z,100941.45
2019-05-03T02:49:46.379Z,100945.35
2019-05-03T02:52:35.798Z,100947.60
2019-05-03T02:55:10.460Z,100947.53
2019-05-03T02:57:39.254Z,100943.07
2019-05-03T03:00:10.425Z,100942.97
2019-05-03T03:02:40.897Z,100946.30
2019-05-03T03:05:10.202Z,100946.88
2019-05-03T03:07:40.643Z,100951.50
2019-05-03T03:10:09.756Z,100948.16
2019-05-03T03:12:42.327Z,100952.89
2019-05-03T03:15:11.207Z,100949.75
2019-05-03T03:17:41.786Z,100951.77
2019-05-03T03:20:11.033Z,100948.01
2019-05-03T03:22:45.303Z,100955.39
2019-05-03T03:25:17.638Z,100957.81
2019-05-03T03:27:48.162Z,100961.16
2019-05-03T03:30:39.474Z,100963.58
2019-05-03T03:33:11.233Z,100964.36
2019-05-03T03:35:41.309Z,100970.32
2019-05-03T03:38:10.289Z,100967.17
2019-05-03T03:40:40.582Z,100973.59
2019-05-03T03:43:10.880Z,100970.52
2019-05-03T03:45:39.908Z,100975.68
2019-05-03T03:48:10.748Z,100972.52
2019-05-03T03:50:45.591Z,100973.19
2019-05-03T03:53:15.276Z,100978.18
2019-05-03T03:55:46.429Z,100983.63
2019-05-03T03:58:21.957Z,100983.20
2019-05-03T04:00:46.880Z,100992.03
2019-05-03T04:03:15.984Z,100986.13
2019-05-03T04:05:55.602Z,100993.38
2019-05-03T04:08:25.841Z,100997.68
2019-05-03T04:10:55.959Z,101003.20
2019-05-03T04:13:25.666Z,100998.16
2019-05-03T04:16:12.308Z,100999.58
2019-05-03T04:18:45.429Z,100998.40
2019-05-03T04:21:16.047Z,101005.89
2019-05-03T04:23:45.867Z,101006.44
2019-05-03T04:26:16.332Z,101004.70
2019-05-03T04:28:45.484Z,101011.48
2019-05-03T04:31:15.251Z,101017.94
2019-05-03T04:33:47.350Z,101012.41
2019-05-03T04:36:16.698Z,101020.36
2019-05-03T04:38:45.700Z,101025.62
2019-05-03T04:41:15.918Z,101019.97
2019-05-03T04:43:45.983Z,101029.84
2019-05-03T04:46:22.255Z,101022.92
2019-05-03T04:48:51.919Z,101038.52
2019-05-03T04:51:20.737Z,101033.77
2019-05-03T04:53:51.165Z,101040.14
2019-05-03T04:56:19.901Z,101043.95
2019-05-03T04:58:48.781Z,101047.56
2019-05-03T05:01:17.511Z,101040.34
2019-05-03T05:03:46.397Z,101046.81
2019-05-03T05:06:16.035Z,101048.75
2019-05-03T05:08:46.094Z,101045.54
2019-05-03T05:11:17.834Z,101050.02
2019-05-03T05:14:00.206Z,101049.32
2019-05-03T05:16:29.951Z,101044.99
2019-05-03T05:19:06.033Z,101052.61
2019-05-03T05:21:39.513Z,101051.30
2019-05-03T05:24:08.259Z,101060.72
2019-05-03T05:26:44.783Z,101060.75
2019-05-03T05:29:18.205Z,101068.27
2019-05-03T05:31:46.934Z,101066.23
2019-05-03T05:34:15.714Z,101064.88
2019-05-03T05:36:45.058Z,101075.34
2019-05-03T05:39:18.502Z,101081.55
2019-05-03T05:41:45.990Z,101074.45
2019-05-03T05:44:14.780Z,101079.61
2019-05-03T05:46:51.161Z,101077.94
2019-05-03T05:49:45.965Z,101078.94
2019-05-03T05:52:15.480Z,101078.94
2019-05-03T05:54:45.999Z,101078.45
2019-05-03T05:57:25.701Z,101077.31
2019-05-03T05:59:56.104Z,101081.34
2019-05-03T06:02:25.380Z,101076.16
2019-05-03T06:04:54.457Z,101073.92
2019-05-03T06:07:30.637Z,101071.41
2019-05-03T06:10:07.191Z,101073.39
2019-05-03T06:12:45.301Z,101075.58
2019-05-03T06:15:31.527Z,101078.39
2019-05-03T06:18:01.889Z,101081.13
2019-05-03T06:20:34.977Z,101081.19
2019-05-03T06:23:05.367Z,101087.16
2019-05-03T06:25:35.763Z,101088.04
2019-05-03T06:28:17.663Z,101090.69
2019-05-03T06:30:41.805Z,101083.66
2019-05-03T06:33:10.550Z,101085.09
2019-05-03T06:35:39.321Z,101088.47
2019-05-03T06:38:08.075Z,101096.34
2019-05-03T06:40:36.888Z,101089.00
2019-05-03T06:43:09.727Z,101090.70
2019-05-03T06:45:36.129Z,101089.62
2019-05-03T06:48:05.559Z,101088.75
2019-05-03T06:50:34.807Z,101061.57
2019-05-03T06:53:05.797Z,101083.13
2019-05-03T06:55:35.103Z,101084.41
2019-05-03T06:58:05.249Z,101094.07
2019-05-03T07:00:35.598Z,101094.07
2019-05-03T07:03:07.209Z,101083.30
2019-05-03T07:05:49.647Z,101078.22
2019-05-03T07:08:38.060Z,101087.71
2019-05-03T07:11:08.287Z,101095.42
2019-05-03T07:13:37.083Z,101081.89
2019-05-03T07:16:05.891Z,101088.34
2019-05-03T07:18:35.150Z,101095.86
2019-05-03T07:21:04.870Z,101087.40
2019-05-03T07:23:34.965Z,101087.46
2019-05-03T07:26:05.363Z,101100.01
2019-05-03T07:28:46.442Z,101097.23
2019-05-03T07:31:04.966Z,101092.94
2019-05-03T07:33:35.192Z,101074.63
2019-05-03T07:36:05.388Z,101093.79
2019-05-03T07:38:35.003Z,101090.75
2019-05-03T07:41:05.254Z,101096.14
2019-05-03T07:43:36.111Z,101098.63
2019-05-03T07:46:05.710Z,101095.88
2019-05-03T07:48:35.346Z,101072.86
2019-05-03T07:51:05.615Z,101095.70
2019-05-03T07:53:34.943Z,101051.09
2019-05-03T07:56:05.489Z,101099.55
2019-05-03T07:58:38.663Z,101097.00
2019-05-03T08:01:10.103Z,101100.27
2019-05-03T08:03:39.056Z,101098.80
2019-05-03T08:06:07.810Z,101098.32
2019-05-03T08:08:36.542Z,101101.73
2019-05-03T08:11:05.464Z,101096.98
2019-05-03T08:13:35.551Z,101094.26
2019-05-03T08:16:05.841Z,101105.64
2019-05-03T08:18:35.464Z,101022.74
2019-05-03T08:21:05.779Z,101101.34
2019-05-03T08:23:35.402Z,101102.95
2019-05-03T08:26:06.104Z,101095.89
2019-05-03T08:28:34.971Z,101094.83
2019-05-03T08:31:23.901Z,101099.42
2019-05-03T08:33:55.340Z,101097.62
2019-05-03T08:36:24.774Z,101089.28
2019-05-03T08:38:56.101Z,101092.58
2019-05-03T08:41:25.685Z,101086.64
2019-05-03T08:43:54.985Z,101087.66
2019-05-03T08:46:25.323Z,101090.81
2019-05-03T08:48:54.839Z,101096.83
2019-05-03T08:51:24.970Z,101091.19
2019-05-03T08:53:55.996Z,101089.11
2019-05-03T08:56:24.679Z,101081.38
2019-05-03T08:58:55.334Z,101080.11
2019-05-03T09:01:25.208Z,101073.41
2019-05-03T09:03:55.858Z,101073.23
2019-05-03T09:06:24.902Z,101070.56
2019-05-03T09:08:56.919Z,101074.40
2019-05-03T09:11:33.306Z,101068.72
2019-05-03T09:14:02.043Z,101060.22
2019-05-03T09:16:30.808Z,101069.53
2019-05-03T09:18:59.600Z,101060.31
2019-05-03T09:21:28.488Z,101064.45
2019-05-03T09:23:57.232Z,101057.83
2019-05-03T09:26:29.165Z,101061.08
2019-05-03T09:28:56.463Z,101064.31
2019-05-03T09:31:25.239Z,101067.33
2019-05-03T09:33:54.792Z,101067.55
2019-05-03T09:36:25.261Z,101062.05
2019-05-03T09:38:54.866Z,101066.84
2019-05-03T09:41:25.579Z,101063.44
2019-05-03T09:43:55.417Z,101065.55
2019-05-03T09:46:26.419Z,101061.43
2019-05-03T09:49:03.560Z,101060.41
2019-05-03T09:51:25.745Z,101063.60
2019-05-03T09:53:56.078Z,101058.92
2019-05-03T09:56:53.017Z,101061.66
2019-05-03T09:59:14.676Z,101057.58
2019-05-03T10:01:45.422Z,101049.31
2019-05-03T10:04:13.925Z,101053.17
2019-05-03T10:06:45.130Z,101046.02
2019-05-03T10:09:15.432Z,101049.31
2019-05-03T10:11:45.819Z,101037.91
2019-05-03T10:14:19.834Z,101069.31
2019-05-03T10:16:50.835Z,101034.91
2019-05-03T10:19:19.581Z,101038.12
2019-05-03T10:21:48.829Z,101035.34
2019-05-03T10:24:17.589Z,101034.53
2019-05-03T10:26:46.383Z,101036.87
2019-05-03T10:29:16.276Z,101046.11
2019-05-03T10:31:47.200Z,101038.45
2019-05-03T10:34:16.905Z,101042.88
2019-05-03T10:36:46.723Z,101040.38
2019-05-03T10:39:16.105Z,101044.14
2019-05-03T10:41:45.422Z,101035.56
2019-05-03T10:44:15.051Z,101043.47
2019-05-03T10:46:45.328Z,101045.25
2019-05-03T10:49:20.280Z,101047.61
2019-05-03T10:51:54.978Z,101052.43
2019-05-03T10:54:24.385Z,101041.73
2019-05-03T10:57:01.341Z,101041.36
2019-05-03T10:59:30.254Z,101041.36
2019-05-03T11:02:06.489Z,101041.64
2019-05-03T11:04:35.710Z,101037.40
2019-05-03T11:07:08.137Z,101042.27
2019-05-03T11:09:48.519Z,101011.81
2019-05-03T11:12:07.708Z,101034.67
2019-05-03T11:14:36.554Z,101030.89
2019-05-03T11:17:05.770Z,101017.80
2019-05-03T11:19:34.883Z,101025.17
2019-05-03T11:22:05.424Z,101021.52
2019-05-03T11:24:36.582Z,101018.71
2019-05-03T11:27:09.237Z,101007.63
2019-05-03T11:29:38.618Z,101010.17
2019-05-03T11:32:11.045Z,100998.11
2019-05-03T11:34:47.573Z,100994.57
2019-05-03T11:37:20.920Z,100992.56
2019-05-03T11:39:50.768Z,100997.46
2019-05-03T11:42:21.555Z,101007.50
2019-05-03T11:44:51.232Z,100995.80
2019-05-03T11:47:20.420Z,101006.13
2019-05-03T11:49:49.819Z,100994.97
2019-05-03T11:52:19.182Z,100992.25
2019-05-03T11:54:56.158Z,100997.71
2019-05-03T11:57:29.137Z,100989.98
2019-05-03T11:59:58.669Z,100993.84
2019-05-03T12:02:29.728Z,100994.85
2019-05-03T12:05:07.689Z,100994.13
2019-05-03T12:07:39.963Z,100994.98
2019-05-03T12:10:26.718Z,100988.40
2019-05-03T12:12:48.802Z,100983.80
2019-05-03T12:15:22.829Z,100982.34
2019-05-03T12:17:58.905Z,100985.11
2019-05-03T12:20:32.394Z,100991.16
2019-05-03T12:23:06.848Z,100979.86
2019-05-03T12:25:39.221Z,100995.38
2019-05-03T12:28:08.760Z,100965.45
2019-05-03T12:30:41.187Z,100968.60
2019-05-03T12:33:15.315Z,100970.19
2019-05-03T12:35:47.695Z,100971.80
2019-05-03T12:38:17.802Z,100982.05
2019-05-03T12:40:47.362Z,100981.84
2019-05-03T12:43:17.694Z,100978.84
2019-05-03T12:45:47.114Z,100978.34
2019-05-03T12:48:16.501Z,100968.98
2019-05-03T12:50:46.720Z,100966.95
2019-05-03T12:53:16.084Z,100978.45
2019-05-03T12:55:45.607Z,100970.47
2019-05-03T12:58:15.367Z,100970.23
2019-05-03T13:01:01.827Z,100970.27
2019-05-03T13:03:32.542Z,100977.83
2019-05-03T13:06:04.519Z,100975.63
2019-05-03T13:08:40.226Z,100967.16
2019-05-03T13:11:09.515Z,100972.20
2019-05-03T13:13:38.740Z,100977.05
2019-05-03T13:16:10.142Z,100978.95
2019-05-03T13:18:39.146Z,100974.03
2019-05-03T13:21:08.185Z,100975.63
2019-05-03T13:23:37.395Z,100979.70
2019-05-03T13:26:06.689Z,100977.34
2019-05-03T13:28:35.966Z,100960.42
2019-05-03T13:31:06.191Z,100952.20
2019-05-03T13:33:35.373Z,100950.05
2019-05-03T13:36:06.287Z,100956.95
2019-05-03T13:38:35.502Z,100920.95
2019-05-03T13:41:06.589Z,100945.75
2019-05-03T13:43:36.153Z,100857.20
2019-05-03T13:46:05.786Z,100944.97
2019-05-03T13:48:42.673Z,100948.78
2019-05-03T13:51:06.246Z,100941.44
2019-05-03T13:53:35.503Z,100936.16
2019-05-03T13:56:05.045Z,100925.48
2019-05-03T13:58:35.889Z,100921.21
2019-05-03T14:01:05.860Z,100922.39
2019-05-03T14:03:35.409Z,100910.68
2019-05-03T14:06:08.572Z,100913.91
2019-05-03T14:08:36.001Z,100886.20
2019-05-03T14:11:05.325Z,100915.55
2019-05-03T14:13:35.451Z,100792.82
2019-05-03T14:16:05.932Z,100913.09
2019-05-03T14:18:35.513Z,100936.50
2019-05-03T14:21:06.856Z,100909.06
2019-05-03T14:23:53.547Z,100828.41
2019-05-03T14:26:24.445Z,100908.83
2019-05-03T14:28:54.387Z,100905.27
2019-05-03T14:31:25.035Z,100900.65
2019-05-03T14:33:55.674Z,100907.74
2019-05-03T14:36:25.119Z,100905.28
2019-05-03T14:38:54.876Z,100904.74
2019-05-03T14:41:25.421Z,100914.80
2019-05-03T14:43:55.690Z,100904.45
2019-05-03T14:46:32.739Z,100905.27
2019-05-03T14:48:55.144Z,100914.97
2019-05-03T14:51:25.383Z,100910.86
2019-05-03T14:53:56.852Z,100904.07
2019-05-03T14:56:26.387Z,100903.28
2019-05-03T14:59:14.789Z,100904.06
2019-05-03T15:01:48.573Z,100898.36
2019-05-03T15:04:17.744Z,100898.06
2019-05-03T15:06:46.544Z,100893.89
2019-05-03T15:09:18.589Z,100889.73
2019-05-03T15:11:45.958Z,100889.16
2019-05-03T15:14:14.735Z,100899.70
2019-05-03T15:16:45.042Z,100893.08
2019-05-03T15:19:14.801Z,100899.62
2019-05-03T15:21:45.273Z,100900.66
2019-05-03T15:24:14.560Z,100902.94
2019-05-03T15:26:44.768Z,100902.87
2019-05-03T15:29:15.549Z,100900.12
2019-05-03T15:31:44.808Z,100894.81
2019-05-03T15:34:15.248Z,100890.95
2019-05-03T15:36:49.983Z,100894.82
2019-05-03T15:39:18.811Z,100888.89
2019-05-03T15:41:47.674Z,100894.77
2019-05-03T15:44:34.176Z,100889.53
2019-05-03T15:47:09.627Z,100892.59
2019-05-03T15:49:37.908Z,100893.30
2019-05-03T15:52:07.264Z,100890.98
2019-05-03T15:54:37.104Z,100898.09
2019-05-03T15:57:14.521Z,100893.38
2019-05-03T15:59:52.702Z,100884.02
2019-05-03T16:02:25.015Z,100884.11
2019-05-03T16:04:56.364Z,100892.31
2019-05-03T16:07:30.319Z,100892.80
2019-05-03T16:09:59.331Z,100888.69
2019-05-03T16:12:28.235Z,100879.97
2019-05-03T16:14:57.369Z,100873.42
2019-05-03T16:17:26.182Z,100877.23
2019-05-03T16:19:55.836Z,100869.64
2019-05-03T16:22:28.539Z,100873.11
2019-05-03T16:24:57.618Z,100864.41
2019-05-03T16:27:31.226Z,100864.48
2019-05-03T16:30:00.819Z,100875.55
2019-05-03T16:32:29.817Z,100874.78
2019-05-03T16:34:59.524Z,100870.73
2019-05-03T16:37:28.348Z,100871.42
2019-05-03T16:39:57.877Z,100874.64
2019-05-03T16:42:26.732Z,100873.94
2019-05-03T16:44:55.650Z,100877.16
2019-05-03T16:47:25.019Z,100873.63
2019-05-03T16:49:54.219Z,100870.84
2019-05-03T16:52:27.853Z,100868.91
2019-05-03T16:54:57.092Z,100870.13
2019-05-03T16:57:28.888Z,100876.32
2019-05-03T16:59:58.642Z,100877.55
2019-05-03T17:02:27.988Z,100863.98
2019-05-03T17:05:01.507Z,100878.17
2019-05-03T17:07:42.455Z,100878.52
2019-05-03T17:10:27.902Z,100884.16
2019-05-03T17:12:57.038Z,100887.52
2019-05-03T17:15:26.760Z,100880.20
2019-05-03T17:17:55.794Z,100881.07
2019-05-03T17:20:25.437Z,100875.38
2019-05-03T17:23:04.485Z,100872.19
2019-05-03T17:25:35.134Z,100879.98
2019-05-03T17:28:06.712Z,100878.54
2019-05-03T17:30:37.394Z,100883.18
2019-05-03T17:33:06.388Z,100882.72
2019-05-03T17:35:36.536Z,100893.67
2019-05-03T17:38:05.672Z,100900.50
2019-05-03T17:40:49.179Z,100903.55
2019-05-03T17:43:23.233Z,100897.84
2019-05-03T17:46:00.146Z,100904.06
2019-05-03T17:48:29.673Z,100907.72
2019-05-03T17:50:59.929Z,100896.88
2019-05-03T17:53:40.070Z,100893.48
2019-05-03T17:56:20.218Z,100897.14
2019-05-03T17:58:51.207Z,100902.10
2019-05-03T18:01:31.051Z,100890.67
2019-05-03T18:04:08.856Z,100891.36
2019-05-03T18:06:35.768Z,100886.11
2019-05-03T18:09:14.758Z,100892.55
2019-05-03T18:11:45.145Z,100886.02
2019-05-03T18:14:17.695Z,100888.11
2019-05-03T18:16:46.838Z,100898.77
2019-05-03T18:19:15.652Z,100895.16
2019-05-03T18:21:44.992Z,100887.90
2019-05-03T18:24:15.367Z,100888.77
2019-05-03T18:26:44.724Z,100889.89
2019-05-03T18:29:14.687Z,100880.64
2019-05-03T18:31:44.592Z,100884.86
2019-05-03T18:34:21.548Z,100873.16
2019-05-03T18:36:45.053Z,100880.50
2019-05-03T18:39:15.196Z,100882.94
2019-05-03T18:41:45.196Z,100876.94
2019-05-03T18:44:25.372Z,100880.77
2019-05-03T18:46:59.242Z,100877.25
2019-05-03T18:49:29.959Z,100873.81
2019-05-03T18:51:58.760Z,100877.68
2019-05-03T18:54:27.902Z,100873.77
2019-05-03T18:56:56.782Z,100869.50
2019-05-03T18:59:28.562Z,100868.03
2019-05-03T19:01:57.563Z,100871.98
2019-05-03T19:04:34.735Z,100880.89
2019-05-03T19:07:04.513Z,100874.77
2019-05-03T19:09:40.406Z,100877.97
2019-05-03T19:12:19.992Z,100872.03
2019-05-03T19:14:50.461Z,100873.43
2019-05-03T19:17:21.224Z,100879.28
2019-05-03T19:19:57.673Z,100875.20
2019-05-03T19:22:27.006Z,100886.79
2019-05-03T19:24:56.444Z,100890.74
2019-05-03T19:27:26.063Z,100891.88
2019-05-03T19:29:55.541Z,100897.78
2019-05-03T19:32:28.210Z,100883.83
2019-05-03T19:34:58.566Z,100886.70
2019-05-03T19:37:29.849Z,100877.86
2019-05-03T19:39:58.822Z,100873.73
2019-05-03T19:42:27.617Z,100875.37
2019-05-03T19:44:56.748Z,100877.69
2019-05-03T19:47:25.781Z,100873.91
2019-05-03T19:49:55.313Z,100870.24
2019-05-03T19:52:42.093Z,100873.39
2019-05-03T19:55:15.404Z,100863.09
2019-05-03T19:57:47.510Z,100859.89
2019-05-03T20:00:17.985Z,100861.17
2019-05-03T20:02:54.785Z,100862.45
2019-05-03T20:05:48.248Z,100852.53
2019-05-03T20:08:20.462Z,100855.43
2019-05-03T20:10:50.526Z,100857.14
2019-05-03T20:13:32.037Z,100857.72
2019-05-03T20:15:51.849Z,100859.98
2019-05-03T20:18:24.678Z,100853.78
2019-05-03T20:20:55.344Z,100854.66
2019-05-03T20:23:25.418Z,100855.59
2019-05-03T20:25:58.580Z,100853.78
2019-05-03T20:28:33.163Z,100853.27
2019-05-03T20:31:04.998Z,100854.66
2019-05-03T20:33:36.088Z,100853.63
2019-05-03T20:36:12.748Z,100853.69
2019-05-03T20:38:41.777Z,100849.44
2019-05-03T20:41:10.676Z,100845.72
2019-05-03T20:43:46.810Z,100841.02
2019-05-03T20:46:17.244Z,100846.45
2019-05-03T20:48:47.580Z,100844.22
2019-05-03T20:51:16.434Z,100845.98
2019-05-03T20:53:45.388Z,100839.52
2019-05-03T20:56:15.449Z,100834.51
2019-05-03T20:58:44.712Z,100830.48
2019-05-03T21:01:15.300Z,100831.61
2019-05-03T21:03:45.626Z,100826.69
2019-05-03T21:06:16.495Z,100834.69
2019-05-03T21:08:52.908Z,100837.23
2019-05-03T21:11:19.968Z,100838.24
2019-05-03T21:13:50.099Z,100835.61
2019-05-03T21:16:22.095Z,100836.90
2019-05-03T21:18:54.294Z,100841.14
2019-05-03T21:21:29.344Z,100837.63
2019-05-03T21:24:04.583Z,100839.22
2019-05-03T21:26:34.613Z,100840.78
2019-05-03T21:29:04.747Z,100845.33
2019-05-03T21:31:35.239Z,100846.83
2019-05-03T21:34:05.631Z,100838.03
2019-05-03T21:36:34.932Z,100842.36
2019-05-03T21:39:05.774Z,100839.16
2019-05-03T21:41:35.246Z,100834.36
2019-05-03T21:44:05.923Z,100838.09
2019-05-03T21:46:36.229Z,100737.73
2019-05-03T21:49:06.567Z,100836.41
2019-05-03T21:51:35.342Z,100829.94
2019-05-03T21:54:06.857Z,100826.18
2019-05-03T21:56:49.779Z,100825.66
2019-05-03T21:59:19.739Z,100820.37
2019-05-03T22:01:51.088Z,100817.84
2019-05-03T22:04:19.983Z,100818.00
2019-05-03T22:06:49.954Z,100815.94
2019-05-03T22:09:18.918Z,100817.89
2019-05-03T22:11:48.987Z,100818.41
2019-05-03T22:14:19.650Z,100823.02
2019-05-03T22:16:50.705Z,100821.74
2019-05-03T22:19:19.695Z,100829.28
2019-05-03T22:21:55.251Z,100828.25
2019-05-03T22:24:28.770Z,100820.49
2019-05-03T22:27:07.001Z,100813.50
2019-05-03T22:29:35.720Z,100813.70
2019-05-03T22:32:05.410Z,100812.91
2019-05-03T22:34:34.862Z,100838.28
2019-05-03T22:37:03.796Z,100812.47
2019-05-03T22:39:32.685Z,100805.48
2019-05-03T22:42:01.711Z,100806.52
2019-05-03T22:44:30.449Z,100810.23
2019-05-03T22:46:59.197Z,100805.69
2019-05-03T22:49:27.976Z,100802.48
2019-05-03T22:51:56.748Z,100798.16
2019-05-03T22:54:25.502Z,100800.11
2019-05-03T22:56:55.475Z,100798.39
2019-05-03T22:59:25.189Z,100795.70
2019-05-03T23:01:54.749Z,100801.02
2019-05-03T23:04:25.331Z,100791.18
2019-05-03T23:06:55.628Z,100799.05
2019-05-03T23:09:25.003Z,100801.53
2019-05-03T23:11:55.434Z,100795.26
2019-05-03T23:14:25.531Z,100785.42
2019-05-03T23:16:54.484Z,100784.84
2019-05-03T23:19:23.367Z,100782.44
2019-05-03T23:21:54.446Z,100779.02
2019-05-03T23:24:24.734Z,100777.30
2019-05-03T23:26:53.547Z,100774.17
2019-05-03T23:29:22.330Z,100767.39
2019-05-03T23:31:51.104Z,100767.15
2019-05-03T23:34:20.197Z,100772.15
2019-05-03T23:36:49.078Z,100763.82
2019-05-03T23:39:17.915Z,100766.72
2019-05-03T23:41:46.678Z,100766.65
2019-05-03T23:44:15.484Z,100763.14
2019-05-03T23:47:02.075Z,100764.48
2019-05-03T23:49:30.885Z,100755.91
2019-05-03T23:52:04.535Z,100753.98
2019-05-03T23:54:33.735Z,100751.97
2019-05-03T23:57:02.458Z,100748.39
2019-05-03T23:59:31.202Z,100741.83
